Latest Weather Observations for Mount Hotham Airport

IDV60801

Issued at 12:02 pm EST Friday 29 July 2016 (issued every 30 minutes, with the page automatically refreshed every 10 minutes)

About weather observations | Map of weather stations | Latest weather observations for VIC | Other Formats
Station Details ID: 083055 Name: MOUNT HOTHAM AIRPORT Lat: -37.05 Lon: 147.33 Height: 1295.4 m
Data from the previous 72 hours. | See also: Recent months at Mount Hotham Airport
Date/Time
EST
Temp
°C
App
Temp
°C
Dew
Point
°C
Rel
Hum
%
Delta-T
°C
Wind Press
QNH
hPa
Press
MSL
hPa
Rain since
9am
mm
Dir  Spd
km/h
Gust
km/h
Spd
kts
Gust
kts
29/12:00pm 5.4 -2.5 1.1 74 1.8 WNW 32 44 17 24 1019.1 1023.4 0.0
29/11:30am 3.9 -2.5 0.9 81 1.3 WNW 24 37 13 20 1019.6 - 0.0
29/11:00am 3.8 -3.0 0.8 81 1.3 WNW 26 39 14 21 1019.8 - 0.0
29/10:30am 3.5 -4.5 0.6 81 1.2 WNW 32 43 17 23 1019.9 - 0.0
29/10:00am 3.2 -3.7 0.1 80 1.3 WNW 26 39 14 21 1020.1 - 0.0
29/09:30am 2.4 -4.1 0.3 86 0.9 NW 24 32 13 17 1020.1 - 0.0
29/09:00am 2.5 -3.3 0.2 85 0.9 NW 20 30 11 16 1020.3 1024.5 0.0
29/08:30am 2.2 -3.9 0.4 88 0.7 NW 22 33 12 18 1020.3 - 0.0
29/08:00am 1.7 -2.4 0.1 89 0.6 WNW 11 15 6 8 1020.6 - 0.0
29/07:30am 1.6 -2.9 0.0 89 0.6 WNW 13 32 7 17 1020.4 - 0.0
29/07:00am 1.1 -3.8 -0.5 89 0.6 NW 15 24 8 13 1019.9 - 0.0
29/06:30am 1.1 -4.2 -0.5 89 0.6 NW 17 22 9 12 1019.6 - 0.0
29/06:00am 0.7 -3.9 -1.1 88 0.7 NW 13 22 7 12 1019.6 1023.8 0.0
29/05:57am 0.9 -4.4 -0.9 88 0.7 NW 17 24 9 13 1019.5 - 0.0
29/05:56am 0.9 -4.4 -0.9 88 0.7 NW 17 24 9 13 1019.5 - 0.0
29/05:38am 1.0 -4.7 -0.9 87 0.7 NW 19 26 10 14 1019.4 - 0.0
29/05:37am 1.0 -4.7 -0.9 87 0.7 NW 19 26 10 14 1019.4 - 0.0
29/05:30am 1.1 -4.6 -0.8 87 0.7 NW 19 30 10 16 1019.4 - 0.0
29/05:00am 0.8 -5.1 -1.1 87 0.7 NW 20 30 11 16 1019.4 - 0.0
29/04:30am 0.5 -5.3 -1.6 86 0.8 NW 19 26 10 14 1019.5 - 0.0
29/04:00am 0.5 -4.9 -1.7 85 0.9 NW 17 26 9 14 1019.5 - 0.0
29/03:30am 0.2 -4.1 -1.9 86 0.8 NNW 11 19 6 10 1019.5 - 0.0
29/03:00am 0.3 -3.7 -2.4 82 1.0 NW 9 15 5 8 1019.8 1024.1 0.0
29/02:30am -0.1 -4.5 -2.8 82 1.0 NW 11 15 6 8 1019.9 - 0.0
29/02:16am 0.1 -4.7 -2.6 82 1.0 NW 13 19 7 10 1019.9 - 0.0
29/02:15am 0.1 -4.7 -2.6 82 1.0 NW 13 19 7 10 1019.9 - 0.0
29/02:00am 0.3 -5.2 -2.2 83 1.0 NNW 17 26 9 14 1019.8 - 0.0
29/01:58am 0.6 -5.3 -1.9 83 1.0 NNW 19 26 10 14 1019.7 - 0.0
29/01:57am 0.6 -5.3 -1.9 83 1.0 NNW 19 26 10 14 1019.7 - 0.0
29/01:30am 0.7 -5.1 -1.7 84 1.0 NW 19 30 10 16 1020.1 - 0.0
29/01:00am 0.9 -5.5 -1.5 84 1.0 NNW 22 30 12 16 1020.4 - 0.0
29/12:30am 0.8 -5.0 -1.4 85 0.9 NW 19 26 10 14 1020.7 - 0.0
29/12:00am 0.0 -3.6 -2.2 85 0.8 N 7 17 4 9 1021.0 1025.2 0.0
 
Date/Time
EST
Temp
°C
App
Temp
°C
Dew
Point
°C
Rel
Hum
%
Delta-T
°C
Wind Press
QNH
hPa
Press
MSL
hPa
Rain since
9am
mm
Dir  Spd
km/h
Gust
km/h
Spd
kts
Gust
kts
28/11:30pm 0.5 -6.6 -1.4 87 0.8 NW 26 33 14 18 1021.0 - 0.0
28/11:00pm 0.6 -5.8 -1.5 86 0.8 NW 22 30 12 16 1021.4 - 0.0
28/10:30pm 0.7 -5.3 -1.5 85 0.9 NW 20 32 11 17 1021.4 - 0.0
28/10:00pm 0.6 -6.5 -1.2 88 0.7 NW 26 33 14 18 1021.5 - 0.0
28/09:30pm 0.3 -5.5 -1.8 86 0.8 NNW 19 24 10 13 1021.9 - 0.0
28/09:00pm 0.4 -5.0 -1.7 86 0.8 NNW 17 22 9 12 1021.9 1026.2 0.0
28/08:30pm 0.6 -4.8 -1.6 85 0.9 NNW 17 26 9 14 1022.0 - 0.0
28/08:00pm 0.5 -4.9 -1.7 85 0.9 N 17 22 9 12 1022.0 - 0.0
28/07:30pm 0.8 -5.0 -1.3 86 0.9 N 19 24 10 13 1022.0 - 0.0
28/07:00pm 0.6 -4.0 -1.2 88 0.7 N 13 17 7 9 1022.1 - 0.0
28/06:30pm 0.6 -4.8 -1.3 87 0.8 NNW 17 24 9 13 1021.9 - 0.0
28/06:00pm 0.8 -4.6 -1.1 87 0.7 NNW 17 24 9 13 1021.8 1025.9 0.0
28/05:49pm 0.9 -4.1 -1.0 87 0.7 NNW 15 19 8 10 1021.6 - 0.0
28/05:48pm 0.9 -4.1 -1.0 87 0.7 NNW 15 19 8 10 1021.6 - 0.0
28/05:30pm 1.0 -3.2 -1.1 86 0.8 N 11 17 6 9 1021.6 - 0.0
28/05:29pm 1.1 -3.1 -1.0 86 0.8 N 11 17 6 9 1021.6 - 0.0
28/05:00pm 2.0 -3.3 -0.7 82 1.1 NNW 17 20 9 11 1021.4 - 0.0
28/04:30pm 2.7 -1.8 -0.6 79 1.3 N 13 20 7 11 1021.3 - 0.0
28/04:00pm 4.1 -0.1 -0.7 71 1.9 N 11 17 6 9 1021.2 - 0.0
28/03:30pm 5.1 0.5 -0.7 66 2.4 WNW 13 20 7 11 1021.2 - 0.0
28/03:00pm 5.4 1.2 -0.6 65 2.5 NW 11 19 6 10 1020.8 1025.2 0.0
28/02:30pm 5.4 0.1 -0.6 65 2.5 NW 17 30 9 16 1020.8 - 0.0
28/02:00pm 6.6 2.4 -0.6 60 3.0 NW 11 19 6 10 1020.8 - 0.0
28/01:30pm 5.9 0.4 0.3 67 2.4 NW 19 24 10 13 1020.6 - 0.0
28/01:00pm 6.1 0.8 -0.6 62 2.8 NW 17 26 9 14 1020.7 - 0.0
28/12:30pm 6.0 0.3 -0.9 61 2.8 NW 19 28 10 15 1020.6 - 0.0
28/12:00pm 5.9 0.7 0.0 66 2.5 WNW 17 28 9 15 1020.7 1025.0 0.0
28/11:30am 5.1 -1.6 -1.1 64 2.5 WNW 24 39 13 21 1021.5 - 0.0
28/11:00am 5.1 -0.8 -1.1 64 2.5 WNW 20 39 11 21 1021.9 - 0.0
28/10:43am 5.1 -0.2 -0.9 65 2.4 WNW 17 30 9 16 1021.8 - 0.0
28/10:42am 5.1 -0.2 -0.9 65 2.4 WNW 17 30 9 16 1021.8 - 0.0
28/10:33am 4.9 -1.3 -0.3 69 2.1 W 22 35 12 19 1021.8 - 0.0
28/10:32am 4.9 -1.3 -0.3 69 2.1 W 22 35 12 19 1021.8 - 0.0
28/10:30am 4.6 -2.4 -0.6 69 2.1 WNW 26 41 14 22 1021.8 - 0.0
28/10:00am 3.6 -2.7 -0.8 73 1.8 WNW 22 46 12 25 1021.9 - 0.0
28/09:30am 3.1 -2.6 -0.7 76 1.5 WNW 19 32 10 17 1021.8 - 0.0
28/09:00am 2.9 -2.0 -0.7 77 1.4 WNW 15 32 8 17 1021.4 1025.7 0.0
28/08:30am 2.5 -2.4 -0.6 80 1.2 NW 15 26 8 14 1021.2 - 0.0
28/08:00am 2.0 -1.5 -1.1 80 1.2 WNW 7 19 4 10 1021.2 - 0.0
28/07:30am 0.6 -4.0 -1.3 87 0.8 WNW 13 20 7 11 1020.7 - 0.0
28/07:00am -0.2 -4.1 -1.8 89 0.6 NNE 9 13 5 7 1020.6 - 0.0
28/06:30am 0.3 -3.6 -1.4 88 0.7 NNW 9 19 5 10 1020.3 - 0.0
28/06:13am 0.5 -2.8 -1.1 89 0.6 N 6 11 3 6 1020.2 - 0.0
28/06:12am 0.5 -2.8 -1.1 89 0.6 N 6 11 3 6 1020.2 - 0.0
28/06:00am 0.2 -3.1 -1.5 88 0.7 N 6 9 3 5 1020.2 1024.4 0.0
28/05:55am 0.4 -3.1 -1.3 88 0.7 N 7 13 4 7 1020.2 - 0.0
28/05:54am 0.4 -3.1 -1.3 88 0.7 N 7 13 4 7 1020.2 - 0.0
28/05:49am 0.4 -2.9 -1.3 88 0.7 NNW 6 13 3 7 1020.1 - 0.0
28/05:48am 0.4 -2.9 -1.3 88 0.7 NNW 6 13 3 7 1020.1 - 0.0
28/05:33am 0.6 -2.3 -1.2 88 0.7 NNW 4 9 2 5 1020.2 - 0.0
28/05:32am 0.6 -2.3 -1.2 88 0.7 NNW 4 9 2 5 1020.2 - 0.0
28/05:30am 0.5 -2.4 -1.3 88 0.7 N 4 9 2 5 1020.1 - 0.0
28/05:00am 0.4 -2.9 -0.9 91 0.5 NNW 6 11 3 6 1019.9 - 0.0
28/04:30am 0.4 -3.1 -1.0 90 0.6 NNW 7 15 4 8 1019.9 - 0.0
28/04:00am 0.2 -3.3 -1.4 89 0.6 NNW 7 15 4 8 1020.1 - 0.0
28/03:30am 0.4 -4.9 -0.9 91 0.5 NW 17 24 9 13 1019.8 - 0.0
28/03:00am 0.0 -6.0 -1.4 90 0.5 WNW 20 28 11 15 1019.6 1023.7 0.0
28/02:30am 0.1 -4.2 -1.3 90 0.5 NNW 11 19 6 10 1019.7 - 0.0
28/02:00am -0.4 -4.7 -2.0 89 0.6 N 11 17 6 9 1019.3 - 0.0
28/01:30am -0.4 -5.1 -2.1 88 0.6 NNW 13 19 7 10 1018.9 - 0.0
28/01:00am -0.5 -4.5 -2.4 87 0.7 NW 9 13 5 7 1019.4 - 0.0
28/12:30am -0.4 -5.1 -2.1 88 0.6 N 13 20 7 11 1019.0 - 0.0
28/12:00am -0.2 -3.8 -1.8 89 0.6 NNW 7 15 4 8 1019.1 1023.4 0.0
 
Date/Time
EST
Temp
°C
App
Temp
°C
Dew
Point
°C
Rel
Hum
%
Delta-T
°C
Wind Press
QNH
hPa
Press
MSL
hPa
Rain since
9am
mm
Dir  Spd
km/h
Gust
km/h
Spd
kts
Gust
kts
27/11:30pm -2.1 -5.9 -4.0 87 0.6 WNW 7 9 4 5 1019.1 - 0.0
27/11:07pm -1.2 -4.9 -3.2 86 0.7 WNW 7 11 4 6 1019.4 - 0.0
27/11:06pm -1.2 -4.9 -3.2 86 0.7 WNW 7 11 4 6 1019.4 - 0.0
27/11:00pm -1.0 -4.7 -3.0 86 0.7 NW 7 13 4 7 1019.5 - 0.0
27/10:50pm -0.9 -5.4 -2.9 86 0.7 NW 11 15 6 8 1019.5 - 0.0
27/10:49pm -0.9 -5.4 -2.9 86 0.7 NW 11 15 6 8 1019.5 - 0.0
27/10:30pm -1.0 -6.7 -3.5 83 0.8 NW 17 30 9 16 1019.5 - 0.0
27/10:00pm -0.6 -5.5 -3.3 82 0.9 WNW 13 17 7 9 1019.3 - 0.0
27/09:46pm -0.2 -5.4 -2.9 82 1.0 WNW 15 28 8 15 1019.0 - 0.0
27/09:45pm -0.2 -5.4 -2.9 82 1.0 WNW 15 28 8 15 1019.0 - 0.0
27/09:36pm -0.1 -5.3 -2.8 82 1.0 WNW 15 26 8 14 1019.0 - 0.0
27/09:35pm -0.1 -5.3 -2.8 82 1.0 WNW 15 26 8 14 1019.0 - 0.0
27/09:30pm 0.0 -5.2 -2.7 82 1.0 WNW 15 26 8 14 1018.9 - 0.0
27/09:00pm 0.3 -3.7 -2.4 82 1.0 NW 9 24 5 13 1019.1 1023.4 0.0
27/08:30pm -0.1 -4.9 -2.5 84 0.9 W 13 20 7 11 1018.6 - 0.0
27/08:00pm -0.1 -4.1 -2.6 83 0.9 NW 9 17 5 9 1017.7 - 0.0
27/07:30pm 0.1 -4.3 -2.6 82 1.0 W 11 17 6 9 1017.3 - 0.0
27/07:00pm 0.3 -4.1 -2.6 81 1.1 WNW 11 17 6 9 1017.1 - 0.0
27/06:30pm 0.8 -3.2 -2.1 81 1.1 NNW 9 17 5 9 1016.4 - 0.0
27/06:00pm 1.2 -3.0 -0.9 86 0.8 NW 11 15 6 8 1016.3 1020.4 0.0
27/05:30pm 1.4 -3.5 -0.7 86 0.8 WNW 15 24 8 13 1015.4 - 0.0
27/05:00pm 2.0 -3.3 -0.7 82 1.1 W 17 26 9 14 1014.8 - 0.0
27/04:30pm 2.2 -3.1 -0.9 80 1.2 WNW 17 26 9 14 1014.2 - 0.0
27/04:00pm 3.4 -2.3 -0.6 75 1.6 WNW 19 32 10 17 1013.9 - 0.0
27/03:30pm 3.8 -2.0 0.0 76 1.6 W 20 30 11 16 1013.8 - 0.0
27/03:00pm 4.2 -0.6 0.0 74 1.7 W 15 28 8 15 1013.1 1017.1 0.0
27/02:30pm 3.6 -1.7 -0.4 75 1.6 W 17 32 9 17 1012.9 - 0.0
27/02:00pm 4.0 -1.3 -0.4 73 1.8 W 17 28 9 15 1012.3 - 0.0
27/01:30pm 4.0 -1.7 -0.4 73 1.8 W 19 30 10 16 1012.1 - 0.0
27/01:00pm 3.7 -2.1 -0.3 75 1.6 W 20 37 11 20 1012.0 - 0.0
27/12:30pm 3.3 -1.6 -0.5 76 1.5 WSW 15 30 8 16 1012.0 - 0.0
27/12:00pm 3.4 -1.5 -0.2 77 1.5 W 15 28 8 15 1011.9 1015.8 0.0
27/11:30am 2.8 -2.5 -0.5 79 1.3 W 17 28 9 15 1011.8 - 0.0
27/11:00am 2.6 -3.1 -0.8 78 1.3 W 19 30 10 16 1011.7 - 0.0
27/10:30am 2.9 -1.7 -0.9 76 1.5 W 13 22 7 12 1011.1 - 0.0
27/10:00am 2.5 -1.7 -0.9 78 1.3 W 11 24 6 13 1010.4 - 0.0
27/09:30am 1.3 -2.9 -1.1 84 0.9 WNW 11 22 6 12 1009.8 - 0.0
27/09:00am 1.4 -4.0 -1.3 82 1.0 WNW 17 28 9 15 1009.4 1013.3 0.6
27/08:30am 1.3 -2.2 -1.3 83 1.0 NNE 7 13 4 7 1008.7 - 0.6
27/08:00am 0.6 -3.3 -1.5 86 0.8 WNW 9 17 5 9 1008.1 - 0.6
27/07:30am 0.6 -5.4 -1.5 86 0.8 WNW 20 32 11 17 1007.3 - 0.6
27/07:00am 0.7 -5.0 -0.9 89 0.6 WNW 19 30 10 16 1006.6 - 0.6
27/06:33am 0.6 -5.2 -1.2 88 0.7 NW 19 32 10 17 1006.1 - 0.6
27/06:32am 0.6 -5.2 -1.2 88 0.7 NW 19 32 10 17 1006.1 - 0.6
27/06:30am 0.5 -4.9 -1.1 89 0.6 NW 17 32 9 17 1006.0 - 0.6
27/06:22am 0.2 -5.2 -1.4 89 0.6 WNW 17 24 9 13 1005.4 - 0.6
27/06:21am 0.2 -5.2 -1.4 89 0.6 WNW 17 24 9 13 1005.4 - 0.6
27/06:00am 0.6 -6.5 -1.0 89 0.7 WNW 26 41 14 22 1004.9 1008.6 0.6
27/05:30am 0.5 -4.8 -0.9 90 0.6 WNW 17 22 9 12 1004.6 - 0.6
27/05:00am 0.5 -6.2 -1.4 87 0.8 WNW 24 43 13 23 1004.2 - 0.6
27/04:30am 0.0 -3.5 -1.6 89 0.6 E 7 13 4 7 1004.1 - 0.6
27/04:07am 0.2 -6.2 -1.7 87 0.7 NNW 22 39 12 21 1003.5 - 0.6
27/04:06am 0.2 -6.2 -1.7 87 0.7 NNW 22 39 12 21 1003.5 - 0.6
27/04:02am 0.1 -7.4 -1.6 88 0.7 NNW 28 46 15 25 1003.4 - 0.6
27/04:01am 0.1 -7.4 -1.6 88 0.7 NNW 28 46 15 25 1003.4 - 0.6
27/04:00am 0.1 -7.8 -1.6 88 0.7 NNW 30 46 16 25 1003.5 - 0.6
27/03:30am 0.2 -8.7 -1.7 87 0.7 NW 35 52 19 28 1003.3 - 0.6
27/03:24am 0.3 -8.0 -1.8 86 0.8 NW 32 52 17 28 1003.4 - 0.6
27/03:23am 0.3 -8.0 -1.8 86 0.8 NW 32 52 17 28 1003.4 - 0.6
27/03:22am 0.4 -7.9 -1.7 86 0.8 NW 32 52 17 28 1003.5 - 0.6
27/03:15am 0.2 -8.1 -1.9 86 0.8 NW 32 46 17 25 1003.6 - 0.6
27/03:14am 0.2 -8.1 -1.9 86 0.8 NW 32 46 17 25 1003.6 - 0.6
27/03:00am 0.4 -7.8 -1.2 89 0.6 NW 32 46 17 25 1003.8 1007.5 0.6
27/02:42am 0.3 -7.2 -1.3 89 0.6 NNW 28 48 15 26 1003.9 - 0.6
27/02:41am 0.3 -7.2 -1.3 89 0.6 NNW 28 48 15 26 1003.9 - 0.6
27/02:32am 0.4 -5.0 -1.2 89 0.6 NNW 17 28 9 15 1004.2 - 0.6
27/02:31am 0.4 -5.0 -1.2 89 0.6 NNW 17 28 9 15 1004.2 - 0.6
27/02:30am 0.5 -4.9 -1.1 89 0.6 N 17 28 9 15 1004.2 - 0.6
27/02:00am 0.4 -6.6 -0.7 92 0.4 NW 26 48 14 26 1004.5 - 0.6
27/01:30am 0.5 -5.2 -0.6 92 0.4 NW 19 35 10 19 1004.9 - 0.6
27/01:07am 0.2 -6.5 -0.9 92 0.4 NW 24 37 13 20 1005.0 - 0.6
27/01:06am 0.2 -6.5 -0.9 92 0.4 NW 24 37 13 20 1005.0 - 0.6
27/01:00am 0.2 -7.2 -0.9 92 0.4 NW 28 46 15 25 1005.1 - 0.6
27/12:33am 0.0 -7.5 -1.1 92 0.4 NW 28 50 15 27 1005.3 - 0.6
27/12:30am 0.0 -6.7 -1.1 92 0.4 NW 24 44 13 24 1005.4 - 0.6
27/12:00am -0.1 -9.7 -1.4 91 0.5 NW 39 59 21 32 1004.9 1008.7 0.6
 
Date/Time
EST
Temp
°C
App
Temp
°C
Dew
Point
°C
Rel
Hum
%
Delta-T
°C
Wind Press
QNH
hPa
Press
MSL
hPa
Rain since
9am
mm
Dir  Spd
km/h
Gust
km/h
Spd
kts
Gust
kts
26/11:30pm -0.5 -11.0 -1.2 95 0.2 NW 44 67 24 36 1005.2 - 0.6
26/11:06pm -0.4 -11.2 -0.5 99 0.0 NW 46 65 25 35 1005.9 - 0.6
26/11:05pm -0.4 -11.2 -0.5 99 0.0 NW 46 65 25 35 1005.9 - 0.6
26/11:00pm -0.7 -12.3 -0.8 99 0.0 NW 50 65 27 35 1006.0 - 0.6
26/10:39pm -0.8 -11.1 -1.1 98 0.1 NW 43 65 23 35 1006.6 - 0.6
26/10:38pm -0.8 -11.1 -1.1 98 0.1 NW 43 65 23 35 1006.6 - 0.6
26/10:30pm -0.5 -10.8 -0.8 98 0.1 NW 43 56 23 30 1006.7 - 0.6
26/10:00pm -0.5 -10.7 -0.6 99 0.0 NW 43 61 23 33 1006.8 - 0.6
26/09:34pm -0.7 -11.0 -0.8 99 0.0 NW 43 69 23 37 1007.0 - 0.6
26/09:33pm -0.7 -11.0 -0.8 99 0.0 NW 43 69 23 37 1007.0 - 0.6
26/09:30pm -0.7 -11.0 -0.8 99 0.0 NW 43 57 23 31 1007.1 - 0.6
26/09:03pm -0.7 -9.1 -0.8 99 0.0 NW 33 52 18 28 1007.6 - 0.6
26/09:02pm -0.7 -9.1 -0.8 99 0.0 NW 33 52 18 28 1007.6 - 0.6
26/09:00pm -0.6 -9.3 -0.7 99 0.0 NW 35 52 19 28 1007.6 1011.4 0.6
26/08:30pm -0.7 -9.4 -0.8 99 0.0 NW 35 57 19 31 1007.6 - 0.6
26/08:12pm -0.7 -10.2 -0.8 99 0.0 NW 39 59 21 32 1007.8 - 0.6
26/08:11pm -0.7 -10.2 -0.8 99 0.0 NW 39 59 21 32 1007.8 - 0.6
26/08:00pm -0.7 -9.4 -0.8 99 0.0 NW 35 50 19 27 1007.8 - 0.6
26/07:40pm -0.5 -8.9 -1.2 95 0.2 NW 33 52 18 28 1007.8 - 0.6
26/07:39pm -0.5 -8.9 -1.2 95 0.2 NW 33 52 18 28 1007.8 - 0.6
26/07:30pm -0.5 -8.7 -1.2 95 0.2 NW 32 44 17 24 1007.9 - 0.6
26/07:00pm -0.2 -10.6 -1.8 89 0.6 NW 43 67 23 36 1007.2 - 0.6
26/06:35pm -0.4 -10.4 -1.5 92 0.4 NW 41 61 22 33 1007.3 - 0.6
26/06:34pm -0.4 -10.4 -1.5 92 0.4 NW 41 61 22 33 1007.3 - 0.6
26/06:30pm -0.3 -10.3 -1.6 91 0.5 NW 41 56 22 30 1007.3 - 0.6
26/06:14pm -0.4 -9.3 -2.1 88 0.6 NW 35 57 19 31 1007.7 - 0.6
26/06:13pm -0.4 -9.3 -2.1 88 0.6 NW 35 57 19 31 1007.7 - 0.6
26/06:12pm -0.4 -9.0 -2.4 86 0.7 NW 33 57 18 31 1007.6 - 0.6
26/06:11pm -0.4 -9.0 -2.4 86 0.7 NW 33 57 18 31 1007.6 - 0.6
26/06:10pm -0.2 -8.8 -2.6 84 0.9 NW 33 44 18 24 1007.6 - 0.6
26/06:09pm -0.2 -8.8 -2.6 84 0.9 NW 33 44 18 24 1007.6 - 0.6
26/06:00pm -0.4 -8.1 -2.6 85 0.8 NW 28 50 15 27 1007.2 1011.2 0.6
26/05:58pm -0.3 -7.9 -2.5 85 0.8 NW 28 48 15 26 1007.2 - 0.6
26/05:57pm -0.3 -7.9 -2.5 85 0.8 NW 28 48 15 26 1007.2 - 0.6
26/05:52pm -0.4 -8.8 -2.6 85 0.8 NW 32 46 17 25 1007.3 - 0.6
26/05:51pm -0.4 -8.8 -2.6 85 0.8 NW 32 46 17 25 1007.3 - 0.6
26/05:30pm -0.2 -9.2 -2.9 82 1.0 NW 35 56 19 30 1007.6 - 0.6
26/05:19pm -0.3 -8.0 -2.7 84 0.9 NW 28 56 15 30 1007.5 - 0.6
26/05:18pm -0.3 -8.0 -2.7 84 0.9 NW 28 56 15 30 1007.5 - 0.6
26/05:15pm -0.4 -7.7 -2.8 84 0.9 NW 26 41 14 22 1007.3 - 0.6
26/05:14pm -0.4 -7.7 -2.8 84 0.9 NW 26 41 14 22 1007.3 - 0.6
26/05:02pm -0.5 -8.1 -2.2 88 0.6 NW 28 46 15 25 1007.1 - 0.6
26/05:00pm -0.5 -7.7 -2.2 88 0.6 NW 26 46 14 25 1007.2 - 0.6
26/04:41pm -0.4 -8.0 -1.8 90 0.5 NNW 28 46 15 25 1007.7 - 0.6
26/04:40pm -0.4 -8.0 -1.8 90 0.5 NNW 28 46 15 25 1007.7 - 0.6
26/04:30pm -0.2 -5.7 -1.8 89 0.6 NNW 17 28 9 15 1007.8 - 0.6
26/04:20pm -0.1 -6.2 -2.2 86 0.8 NW 20 33 11 18 1007.8 - 0.6
26/04:19pm -0.1 -6.2 -2.2 86 0.8 NW 20 33 11 18 1007.8 - 0.6
26/04:00pm 0.1 -7.1 -2.3 84 0.9 NW 26 44 14 24 1007.7 - 0.6
26/03:54pm 0.0 -7.2 -2.1 86 0.8 NW 26 37 14 20 1007.9 - 0.6
26/03:53pm 0.0 -7.2 -2.1 86 0.8 NW 26 37 14 20 1007.9 - 0.6
26/03:30pm -0.2 -6.6 -1.9 88 0.6 NW 22 35 12 19 1008.3 - 0.6
26/03:20pm -0.1 -6.2 -2.3 85 0.8 N 20 24 11 13 1008.4 - 0.6
26/03:19pm -0.1 -5.2 -2.3 85 0.8 N 15 24 8 13 1008.4 - 0.6
26/03:00pm 0.0 -5.9 -2.5 83 0.9 NNW 19 39 10 21 1008.4 1012.2 0.6
26/02:49pm 0.0 -5.9 -2.2 85 0.8 NNW 19 30 10 16 1008.5 - 0.6
26/02:48pm 0.0 -5.9 -2.2 85 0.8 NNW 19 30 10 16 1008.5 - 0.6
26/02:37pm -0.1 -7.7 -2.5 84 0.9 NNW 28 46 15 25 1008.5 - 0.6
26/02:30pm -0.1 -7.7 -2.3 85 0.8 NW 28 41 15 22 1008.3 - 0.6
26/02:20pm -0.1 -9.5 -2.6 83 0.9 NW 37 57 20 31 1008.6 - 0.6
26/02:19pm -0.1 -9.5 -2.6 83 0.9 NW 37 57 20 31 1008.6 - 0.6
26/02:00pm 0.0 -8.1 -3.2 79 1.2 NNW 30 48 16 26 1008.7 - 0.6
26/01:55pm 0.2 -8.8 -3.0 79 1.2 NNW 35 54 19 29 1008.7 - 0.6
26/01:54pm 0.2 -8.8 -3.0 79 1.2 NNW 35 54 19 29 1008.7 - 0.6
26/01:52pm 0.0 -9.8 -3.0 80 1.1 NNW 39 54 21 29 1008.8 - 0.6
26/01:51pm 0.0 -9.8 -3.0 80 1.1 NNW 39 54 21 29 1008.8 - 0.6
26/01:49pm 0.1 -5.8 -2.4 83 0.9 NW 19 28 10 15 1008.8 - 0.6
26/01:48pm 0.1 -5.8 -2.4 83 0.9 NW 19 28 10 15 1008.8 - 0.6
26/01:35pm 0.1 -6.4 -2.3 84 0.9 NNW 22 35 12 19 1009.1 - 0.6
26/01:34pm 0.1 -6.4 -2.3 84 0.9 NNW 22 35 12 19 1009.1 - 0.6
26/01:30pm -0.2 -7.1 -2.9 82 1.0 NNW 24 37 13 20 1009.1 - 0.6
26/01:00pm 0.3 -5.0 -3.4 76 1.4 NNW 15 37 8 20 1009.5 - 0.6
26/12:30pm -0.1 -5.0 -3.0 81 1.1 NNW 13 22 7 12 1010.3 - 0.6
26/12:28pm -0.2 -5.1 -3.2 80 1.1 NNW 13 22 7 12 1010.3 - 0.6
26/12:27pm -0.2 -5.1 -3.2 80 1.1 NNW 13 22 7 12 1010.3 - 0.6
26/12:12pm -0.6 -6.8 -3.1 83 0.9 NNW 20 35 11 19 1010.6 - 0.6
26/12:11pm -0.6 -6.8 -3.1 83 0.9 NNW 20 35 11 19 1010.6 - 0.6

Other Formats:

Comma delimited format used in spreadsheet applications
http://www.bom.gov.au/fwo/IDV60801/IDV60801.94905.axf

JavaScript Object Notation format (JSON) in row-major order
http://www.bom.gov.au/fwo/IDV60801/IDV60801.94905.json